Lil D — WDC2462 — position and weather

sailwx.info

Track history (hours):
 
Tides and Currents Weather Stations Pressure Air Temp Water Temp Dewpoint Dewpoint Depression Visibility Wind Speed Wind Dir Waves Ship Positions

Lil D

Owner: Florida Marine, LLC, Mandeville, LA. More information available from US FCC via Universal Licensing System and Coast Guard Vessel Documentation Center.

Last reported at 2017-Dec-17 18:19 UTC. Time now 2017-Dec-18 05:16 UTC.
Position N 29°31' W 094°53'.

Length 40 m; draft 3 m.

Type: Other ship. MMSI: 366993510.

Date/timePositionNaut miles runAvg speedWind from/ knotsBaromVisibWave heightAir tempDewpointWater temp
2017-Dec-17 18:19N 29°31' W 094°53'2 7.7
2017-Dec-17 18:00N 29°33' W 094°54'4 7.4
2017-Dec-17 17:30N 29°36' W 094°57'3 6.7
2017-Dec-17 17:00N 29°39' W 094°58'4 7.2
2017-Dec-17 16:30N 29°42' W 095°00'3 6.4
2017-Dec-17 15:59N 29°44' W 095°03'3 1.2
2017-Dec-17 13:15N 29°47' W 095°04'1 2.9
2017-Dec-17 12:46N 29°46' W 095°05'1 5.1
2017-Dec-17 12:30N 29°45' W 095°06'1 1.6
2017-Dec-17 11:54N 29°46' W 095°07'0 0.0
2017-Dec-17 11:27N 29°46' W 095°07'0 0.0
2017-Dec-17 10:54N 29°46' W 095°07'0 0.0
2017-Dec-17 10:28N 29°46' W 095°07'0 0.0
2017-Dec-17 09:57N 29°46' W 095°07'0 0.0
2017-Dec-17 09:28N 29°46' W 095°07'0 0.0
2017-Dec-17 08:59N 29°46' W 095°07'0 0.0
2017-Dec-17 08:26N 29°46' W 095°07'1 0.1
2017-Dec-16 23:32N 29°45' W 095°06'0 7.6
2017-Dec-16 23:28N 29°46' W 095°05'0 0.1
2017-Dec-16 21:19N 29°46' W 095°05'2 4.8
2017-Dec-16 20:58N 29°44' W 095°07'5 4.4
2017-Dec-16 19:51N 29°44' W 095°12'0 0.0
2017-Dec-16 13:01N 29°44' W 095°12'0 0.0
2017-Dec-16 12:51N 29°44' W 095°12'0 0.0
2017-Dec-16 12:19N 29°44' W 095°12'0 0.0
2017-Dec-16 11:21N 29°44' W 095°12'0 0.0
2017-Dec-16 11:00N 29°44' W 095°12'0 0.0
2017-Dec-16 10:16N 29°44' W 095°12'0 0.0
2017-Dec-16 09:58N 29°44' W 095°12'0 0.0
2017-Dec-16 09:30N 29°44' W 095°12'0 0.0
2017-Dec-16 09:00N 29°44' W 095°12'0 0.0
2017-Dec-16 08:27N 29°44' W 095°12'0 0.0
2017-Dec-16 07:58N 29°44' W 095°12'0 0.0
2017-Dec-16 07:27N 29°44' W 095°12'0 0.0
2017-Dec-16 06:24N 29°44' W 095°12'0 0.0
2017-Dec-16 06:00N 29°44' W 095°12'0 0.0
2017-Dec-16 05:31N 29°44' W 095°12'0 0.0
2017-Dec-16 05:00N 29°44' W 095°12'0 0.0
2017-Dec-16 04:30N 29°44' W 095°12'0 0.0
2017-Dec-16 03:58N 29°44' W 095°12'0 0.0
2017-Dec-16 03:30N 29°44' W 095°12'0 0.0
2017-Dec-16 02:59N 29°44' W 095°12'0 0.0
2017-Dec-16 02:30N 29°44' W 095°12'0 0.0
2017-Dec-16 01:57N 29°44' W 095°12'0 0.0
2017-Dec-16 01:30N 29°44' W 095°12'0 0.0
2017-Dec-15 04:21N 29°44' W 095°12'0 0.0
2017-Dec-15 03:59N 29°44' W 095°12'0 0.0
2017-Dec-15 00:08N 29°44' W 095°12'5 0.5
2017-Dec-14 13:40N 29°46' W 095°07'0 0.0
2017-Dec-14 12:13N 29°46' W 095°07'0 0.0
2017-Dec-14 11:51N 29°46' W 095°07'0 0.0
2017-Dec-14 11:27N 29°46' W 095°07'0 0.0
2017-Dec-14 10:41N 29°46' W 095°07'0 0.0
2017-Dec-14 10:30N 29°46' W 095°07'0 0.0
2017-Dec-14 09:59N 29°46' W 095°07'0 0.0
2017-Dec-14 09:04N 29°46' W 095°07'0 0.0
2017-Dec-14 08:41N 29°46' W 095°07'0 0.0
2017-Dec-14 07:52N 29°46' W 095°07'0 0.0
2017-Dec-14 07:20N 29°46' W 095°07'0 0.0
2017-Dec-14 06:44N 29°46' W 095°07'0 0.0
2017-Dec-14 06:30N 29°46' W 095°07'0 0.0
2017-Dec-14 06:00N 29°46' W 095°07'0 0.0
2017-Dec-14 05:29N 29°46' W 095°07'0 0.0
2017-Dec-14 04:56N 29°46' W 095°07'0 0.0
2017-Dec-14 04:30N 29°46' W 095°07'0 0.0
2017-Dec-14 04:00N 29°46' W 095°07'0 0.0
2017-Dec-14 03:28N 29°46' W 095°07'0 0.0
2017-Dec-13 15:12N 29°46' W 095°06'1 3.3
2017-Dec-13 15:00N 29°45' W 095°06'1 1.2
2017-Dec-13 14:25N 29°46' W 095°06'0 0.5
2017-Dec-13 13:54N 29°46' W 095°06'1 0.2
2017-Dec-13 10:25N 29°46' W 095°07'0 0.0
2017-Dec-13 10:01N 29°46' W 095°07'0 0.0
2017-Dec-13 09:18N 29°46' W 095°07'1 0.1
2017-Dec-12 23:05N 29°45' W 095°06'2 5.4
2017-Dec-12 22:47N 29°45' W 095°04'2 6.5
2017-Dec-12 22:29N 29°44' W 095°02'3 6.3
2017-Dec-12 22:00N 29°42' W 094°59'4 7.4
2017-Dec-12 21:31N 29°38' W 094°58'4 7.7
2017-Dec-12 21:01N 29°35' W 094°56'4 7.8
2017-Dec-12 20:30N 29°32' W 094°53'54 1.9
2017-Dec-11 16:14N 30°05' W 094°04'0 0.0
2017-Dec-11 14:26N 30°05' W 094°04'13 0.6
2017-Dec-10 15:52N 29°57' W 093°52'1 1.5
2017-Dec-10 15:24N 29°58' W 093°52'  
Track history (hours):
 
Tides and Currents Weather Stations Pressure Air Temp Water Temp Dewpoint Dewpoint Depression Visibility Wind Speed Wind Dir Waves Ship Positions

Lil D

Owner: Florida Marine, LLC, Mandeville, LA. More information available from US FCC via Universal Licensing System and Coast Guard Vessel Documentation Center.

Last reported at 2017-Dec-17 18:19 UTC. Time now 2017-Dec-18 05:16 UTC.
Position N 29°31' W 094°53'.

Length 40 m; draft 3 m.

Type: Other ship. MMSI: 366993510.

Date/timePositionNaut miles runAvg speedWind from/ knotsBaromVisibWave heightAir tempDewpointWater temp
2017-Dec-17 18:19N 29°31' W 094°53'2 7.7
2017-Dec-17 18:00N 29°33' W 094°54'4 7.4
2017-Dec-17 17:30N 29°36' W 094°57'3 6.7
2017-Dec-17 17:00N 29°39' W 094°58'4 7.2
2017-Dec-17 16:30N 29°42' W 095°00'3 6.4
2017-Dec-17 15:59N 29°44' W 095°03'3 1.2
2017-Dec-17 13:15N 29°47' W 095°04'1 2.9
2017-Dec-17 12:46N 29°46' W 095°05'1 5.1
2017-Dec-17 12:30N 29°45' W 095°06'1 1.6
2017-Dec-17 11:54N 29°46' W 095°07'0 0.0
2017-Dec-17 11:27N 29°46' W 095°07'0 0.0
2017-Dec-17 10:54N 29°46' W 095°07'0 0.0
2017-Dec-17 10:28N 29°46' W 095°07'0 0.0
2017-Dec-17 09:57N 29°46' W 095°07'0 0.0
2017-Dec-17 09:28N 29°46' W 095°07'0 0.0
2017-Dec-17 08:59N 29°46' W 095°07'0 0.0
2017-Dec-17 08:26N 29°46' W 095°07'1 0.1
2017-Dec-16 23:32N 29°45' W 095°06'0 7.6
2017-Dec-16 23:28N 29°46' W 095°05'0 0.1
2017-Dec-16 21:19N 29°46' W 095°05'2 4.8
2017-Dec-16 20:58N 29°44' W 095°07'5 4.4
2017-Dec-16 19:51N 29°44' W 095°12'0 0.0
2017-Dec-16 13:01N 29°44' W 095°12'0 0.0
2017-Dec-16 12:51N 29°44' W 095°12'0 0.0
2017-Dec-16 12:19N 29°44' W 095°12'0 0.0
2017-Dec-16 11:21N 29°44' W 095°12'0 0.0
2017-Dec-16 11:00N 29°44' W 095°12'0 0.0
2017-Dec-16 10:16N 29°44' W 095°12'0 0.0
2017-Dec-16 09:58N 29°44' W 095°12'0 0.0
2017-Dec-16 09:30N 29°44' W 095°12'0 0.0
2017-Dec-16 09:00N 29°44' W 095°12'0 0.0
2017-Dec-16 08:27N 29°44' W 095°12'0 0.0
2017-Dec-16 07:58N 29°44' W 095°12'0 0.0
2017-Dec-16 07:27N 29°44' W 095°12'0 0.0
2017-Dec-16 06:24N 29°44' W 095°12'0 0.0
2017-Dec-16 06:00N 29°44' W 095°12'0 0.0
2017-Dec-16 05:31N 29°44' W 095°12'0 0.0
2017-Dec-16 05:00N 29°44' W 095°12'0 0.0
2017-Dec-16 04:30N 29°44' W 095°12'0 0.0
2017-Dec-16 03:58N 29°44' W 095°12'0 0.0
2017-Dec-16 03:30N 29°44' W 095°12'0 0.0
2017-Dec-16 02:59N 29°44' W 095°12'0 0.0
2017-Dec-16 02:30N 29°44' W 095°12'0 0.0
2017-Dec-16 01:57N 29°44' W 095°12'0 0.0
2017-Dec-16 01:30N 29°44' W 095°12'0 0.0
2017-Dec-15 04:21N 29°44' W 095°12'0 0.0
2017-Dec-15 03:59N 29°44' W 095°12'0 0.0
2017-Dec-15 00:08N 29°44' W 095°12'5 0.5
2017-Dec-14 13:40N 29°46' W 095°07'0 0.0
2017-Dec-14 12:13N 29°46' W 095°07'0 0.0
2017-Dec-14 11:51N 29°46' W 095°07'0 0.0
2017-Dec-14 11:27N 29°46' W 095°07'0 0.0
2017-Dec-14 10:41N 29°46' W 095°07'0 0.0
2017-Dec-14 10:30N 29°46' W 095°07'0 0.0
2017-Dec-14 09:59N 29°46' W 095°07'0 0.0
2017-Dec-14 09:04N 29°46' W 095°07'0 0.0
2017-Dec-14 08:41N 29°46' W 095°07'0 0.0
2017-Dec-14 07:52N 29°46' W 095°07'0 0.0
2017-Dec-14 07:20N 29°46' W 095°07'0 0.0
2017-Dec-14 06:44N 29°46' W 095°07'0 0.0
2017-Dec-14 06:30N 29°46' W 095°07'0 0.0
2017-Dec-14 06:00N 29°46' W 095°07'0 0.0
2017-Dec-14 05:29N 29°46' W 095°07'0 0.0
2017-Dec-14 04:56N 29°46' W 095°07'0 0.0
2017-Dec-14 04:30N 29°46' W 095°07'0 0.0
2017-Dec-14 04:00N 29°46' W 095°07'0 0.0
2017-Dec-14 03:28N 29°46' W 095°07'0 0.0
2017-Dec-13 15:12N 29°46' W 095°06'1 3.3
2017-Dec-13 15:00N 29°45' W 095°06'1 1.2
2017-Dec-13 14:25N 29°46' W 095°06'0 0.5
2017-Dec-13 13:54N 29°46' W 095°06'1 0.2
2017-Dec-13 10:25N 29°46' W 095°07'0 0.0
2017-Dec-13 10:01N 29°46' W 095°07'0 0.0
2017-Dec-13 09:18N 29°46' W 095°07'1 0.1
2017-Dec-12 23:05N 29°45' W 095°06'2 5.4
2017-Dec-12 22:47N 29°45' W 095°04'2 6.5
2017-Dec-12 22:29N 29°44' W 095°02'3 6.3
2017-Dec-12 22:00N 29°42' W 094°59'4 7.4
2017-Dec-12 21:31N 29°38' W 094°58'4 7.7
2017-Dec-12 21:01N 29°35' W 094°56'4 7.8
2017-Dec-12 20:30N 29°32' W 094°53'54 1.9
2017-Dec-11 16:14N 30°05' W 094°04'0 0.0
2017-Dec-11 14:26N 30°05' W 094°04'13 0.6
2017-Dec-10 15:52N 29°57' W 093°52'1 1.5
2017-Dec-10 15:24N 29°58' W 093°52'  

Dump ship's entire track history